No particular awareness of the weather is required.    There are no Weather-warnings


Meteo18 Weather Cam more information Meteo18 Weather Cam


Thunder radar more information blitzortung!


Rain radar more information rain snow radar


Visit our other weather sites:

Template documentation
and downloads

And another site



Weather Underground History page Text

Daily Summary for February 5, 2016 Units:  Metric    English   Both
« Previous Day
Next Day »
Daily Weekly Monthly Yearly Custom
  High: Low: Average:
Temperature: 12.8 °C 3.9 °C 8.5 °C
Dew Point: 10.2 °C 3.6 °C 7.7 °C
Humidity: 98 % 83 % 95 %
Wind Speed: 4.8 km/h 0.0 km/h 0.5 km/h
Wind Gust: 9.7 km/h - -
Wind:- - SW
Pressure: 1030.7 hPa 1018.8 hPa -
Precipitation: 0.5 mm    
Historical Graphs
 
 
Tabular Data for February 5, 2016
Time Temperature Dew Point Pressure Wind Wind Speed Wind Gust Humidity Rainfall Rate (Hourly)
00:02 9.1 °C 8.5 °C 1030.7 hPa Calm   3.2 km/h 96 % 0.0 mm
00:07 9.1 °C 8.5 °C 1030.7 hPa Calm   3.2 km/h 96 % 0.0 mm
00:17 8.9 °C 8.3 °C 1030.7 hPa Calm   1.6 km/h 96 % 0.0 mm
00:27 8.9 °C 8.3 °C 1030.7 hPa Calm   3.2 km/h 96 % 0.0 mm
00:47 8.8 °C 8.2 °C 1030.7 hPa Calm     96 % 0.0 mm
00:57 8.7 °C 8.1 °C 1030.7 hPa Calm     96 % 0.0 mm
01:07 8.6 °C 8.0 °C 1030.7 hPa Calm     96 % 0.0 mm
01:12 8.5 °C 7.9 °C 1030.7 hPa Calm     96 % 0.0 mm
01:22 8.4 °C 7.8 °C 1030.4 hPa Calm     96 % 0.0 mm
01:32 8.5 °C 8.1 °C 1030.4 hPa Calm     97 % 0.0 mm
01:37 8.5 °C 8.1 °C 1030.4 hPa Calm     97 % 0.0 mm
01:47 8.4 °C 8.0 °C 1030.4 hPa Calm     97 % 0.0 mm
01:57 8.4 °C 8.0 °C 1030.4 hPa Calm     97 % 0.0 mm
02:02 8.4 °C 8.0 °C 1030.4 hPa Calm     97 % 0.0 mm
02:12 8.3 °C 7.9 °C 1030.4 hPa Calm     97 % 0.0 mm
02:17 8.4 °C 8.0 °C 1030.4 hPa Calm     97 % 0.0 mm
02:27 8.4 °C 8.0 °C 1030.4 hPa Calm   1.6 km/h 97 % 0.0 mm
02:32 8.4 °C 8.0 °C 1030.4 hPa Calm   1.6 km/h 97 % 0.0 mm
02:42 8.4 °C 8.0 °C 1030.0 hPa Calm     97 % 0.0 mm
02:47 8.3 °C 7.9 °C 1030.0 hPa Calm     97 % 0.0 mm
02:52 8.3 °C 7.9 °C 1030.0 hPa Calm     97 % 0.0 mm
03:02 8.2 °C 7.8 °C 1030.0 hPa Calm     97 % 0.0 mm
03:12 8.2 °C 7.8 °C 1030.0 hPa Calm     97 % 0.0 mm
03:17 8.2 °C 7.9 °C 1030.0 hPa Calm     98 % 0.0 mm
03:22 8.4 °C 8.1 °C 1030.0 hPa Calm   1.6 km/h 98 % 0.0 mm
03:32 8.4 °C 8.1 °C 1029.7 hPa Calm     98 % 0.0 mm
03:42 8.3 °C 8.0 °C 1029.7 hPa Calm     98 % 0.3 mm
03:47 8.3 °C 8.0 °C 1029.7 hPa Calm     98 % 0.3 mm
03:57 8.4 °C 8.1 °C 1029.7 hPa Calm     98 % 0.3 mm
04:02 8.4 °C 8.1 °C 1029.3 hPa Calm     98 % 0.3 mm
04:07 8.4 °C 8.1 °C 1029.3 hPa Calm     98 % 0.5 mm
04:12 8.4 °C 8.1 °C 1029.3 hPa Calm     98 % 0.5 mm
04:17 8.5 °C 8.2 °C 1029.3 hPa Calm     98 % 0.5 mm
04:22 8.5 °C 8.2 °C 1029.3 hPa Calm     98 % 0.5 mm
04:27 8.4 °C 8.1 °C 1029.3 hPa Calm     98 % 0.5 mm
04:42 8.4 °C 8.1 °C 1029.3 hPa Calm     98 % 0.3 mm
04:47 8.4 °C 8.1 °C 1029.3 hPa Calm     98 % 0.3 mm
04:52 8.4 °C 8.1 °C 1029.3 hPa Calm     98 % 0.3 mm
04:57 8.5 °C 8.2 °C 1029.3 hPa Calm   1.6 km/h 98 % 0.3 mm
05:02 8.6 °C 8.3 °C 1029.3 hPa Calm   1.6 km/h 98 % 0.3 mm
05:12 8.6 °C 8.3 °C 1029.3 hPa Calm   1.6 km/h 98 % 0.0 mm
05:17 8.7 °C 8.4 °C 1029.3 hPa Calm     98 % 0.0 mm
05:22 8.7 °C 8.4 °C 1029.3 hPa Calm     98 % 0.0 mm
05:27 8.7 °C 8.4 °C 1029.3 hPa Calm     98 % 0.0 mm
05:32 8.7 °C 8.4 °C 1029.3 hPa Calm     98 % 0.0 mm
05:37 8.7 °C 8.4 °C 1029.3 hPa Calm     98 % 0.0 mm
05:42 8.7 °C 8.4 °C 1029.0 hPa Calm     98 % 0.0 mm
05:47 8.7 °C 8.4 °C 1029.0 hPa Calm     98 % 0.0 mm
05:52 8.7 °C 8.4 °C 1029.0 hPa Calm   1.6 km/h 98 % 0.0 mm
05:57 8.7 °C 8.4 °C 1029.0 hPa Calm   3.2 km/h 98 % 0.0 mm
06:02 8.7 °C 8.4 °C 1029.0 hPa Calm   3.2 km/h 98 % 0.0 mm
06:07 8.7 °C 8.4 °C 1029.0 hPa Calm   3.2 km/h 98 % 0.0 mm
06:12 8.7 °C 8.4 °C 1029.0 hPa Calm   1.6 km/h 98 % 0.0 mm
06:17 8.7 °C 8.4 °C 1028.7 hPa Calm   1.6 km/h 98 % 0.0 mm
06:22 8.7 °C 8.4 °C 1029.0 hPa Calm   1.6 km/h 98 % 0.0 mm
06:27 8.7 °C 8.4 °C 1028.7 hPa Calm     98 % 0.0 mm
06:32 8.7 °C 8.4 °C 1028.7 hPa Calm     98 % 0.0 mm
06:42 8.7 °C 8.4 °C 1028.7 hPa Calm   1.6 km/h 98 % 0.0 mm
06:47 8.6 °C 8.3 °C 1028.7 hPa Calm   1.6 km/h 98 % 0.0 mm
06:52 8.6 °C 8.3 °C 1028.7 hPa Calm   1.6 km/h 98 % 0.0 mm
07:02 8.6 °C 8.3 °C 1028.7 hPa Calm     98 % 0.0 mm
07:12 8.5 °C 8.2 °C 1028.7 hPa Calm     98 % 0.0 mm
07:17 8.6 °C 8.3 °C 1028.7 hPa Calm   1.6 km/h 98 % 0.0 mm
07:22 8.6 °C 8.3 °C 1028.7 hPa Calm   1.6 km/h 98 % 0.0 mm
07:27 8.6 °C 8.3 °C 1028.7 hPa Calm   1.6 km/h 98 % 0.0 mm
07:32 8.5 °C 8.2 °C 1028.7 hPa Calm     98 % 0.0 mm
07:37 8.4 °C 8.1 °C 1028.7 hPa Calm     98 % 0.0 mm
07:42 8.4 °C 8.1 °C 1028.7 hPa Calm     98 % 0.0 mm
07:47 8.4 °C 8.1 °C 1028.7 hPa Calm     98 % 0.0 mm
07:52 8.3 °C 8.0 °C 1028.7 hPa Calm     98 % 0.0 mm
07:57 8.3 °C 8.0 °C 1028.7 hPa Calm     98 % 0.0 mm
08:02 8.3 °C 8.0 °C 1028.7 hPa Calm     98 % 0.0 mm
08:07 8.3 °C 8.0 °C 1028.7 hPa Calm     98 % 0.0 mm
08:12 8.3 °C 8.0 °C 1028.7 hPa Calm     98 % 0.0 mm
08:17 8.4 °C 8.1 °C 1028.7 hPa Calm     98 % 0.0 mm
08:22 8.4 °C 8.1 °C 1028.7 hPa Calm   1.6 km/h 98 % 0.0 mm
08:27 8.5 °C 8.2 °C 1028.7 hPa Calm   1.6 km/h 98 % 0.0 mm
08:32 8.5 °C 8.2 °C 1028.7 hPa Calm     98 % 0.0 mm
08:37 8.6 °C 8.3 °C 1028.7 hPa Calm     98 % 0.0 mm
08:42 8.6 °C 8.3 °C 1028.7 hPa Calm     98 % 0.0 mm
08:47 8.6 °C 8.3 °C 1028.7 hPa Calm     98 % 0.0 mm
08:52 8.6 °C 8.3 °C 1028.7 hPa Calm     98 % 0.0 mm
08:57 8.6 °C 8.3 °C 1028.7 hPa Calm     98 % 0.0 mm
09:02 8.6 °C 8.3 °C 1028.3 hPa Calm   1.6 km/h 98 % 0.0 mm
09:07 8.7 °C 8.4 °C 1028.3 hPa Calm   1.6 km/h 98 % 0.0 mm
09:12 8.7 °C 8.4 °C 1028.3 hPa Calm   1.6 km/h 98 % 0.0 mm
09:17 8.7 °C 8.4 °C 1028.3 hPa SW 3.2 km/h 3.2 km/h 98 % 0.0 mm
09:22 8.7 °C 8.4 °C 1028.3 hPa Calm   3.2 km/h 98 % 0.0 mm
09:32 8.8 °C 8.5 °C 1028.3 hPa Calm   3.2 km/h 98 % 0.0 mm
09:37 8.8 °C 8.5 °C 1028.3 hPa WSW 1.6 km/h 4.8 km/h 98 % 0.0 mm
09:42 8.8 °C 8.5 °C 1028.3 hPa SW 3.2 km/h 6.4 km/h 98 % 0.0 mm
09:47 8.9 °C 8.6 °C 1028.0 hPa WSW 1.6 km/h 6.4 km/h 98 % 0.0 mm
09:52 8.9 °C 8.6 °C 1028.0 hPa WSW 1.6 km/h 6.4 km/h 98 % 0.0 mm
09:57 8.9 °C 8.6 °C 1028.0 hPa Calm   8.0 km/h 98 % 0.0 mm
10:02 8.9 °C 8.6 °C 1028.0 hPa Calm   8.0 km/h 98 % 0.0 mm
10:07 9.0 °C 8.7 °C 1028.0 hPa SSW 1.6 km/h 8.0 km/h 98 % 0.0 mm
10:12 9.0 °C 8.7 °C 1028.0 hPa SW 3.2 km/h 4.8 km/h 98 % 0.0 mm
10:17 9.0 °C 8.7 °C 1028.0 hPa SW 4.8 km/h 4.8 km/h 98 % 0.0 mm
10:22 9.1 °C 8.8 °C 1028.0 hPa WSW 1.6 km/h 8.0 km/h 98 % 0.0 mm
10:27 9.0 °C 8.7 °C 1028.3 hPa SW 3.2 km/h 8.0 km/h 98 % 0.0 mm
10:32 9.1 °C 8.8 °C 1028.0 hPa SW 1.6 km/h 8.0 km/h 98 % 0.0 mm
10:37 9.1 °C 8.8 °C 1028.0 hPa Calm   8.0 km/h 98 % 0.0 mm
10:42 9.2 °C 8.9 °C 1028.0 hPa SW 3.2 km/h 6.4 km/h 98 % 0.0 mm
10:47 9.2 °C 8.9 °C 1028.0 hPa Calm   6.4 km/h 98 % 0.0 mm
10:52 9.2 °C 8.9 °C 1028.0 hPa Calm   6.4 km/h 98 % 0.0 mm
10:57 9.2 °C 8.9 °C 1028.0 hPa SW 1.6 km/h 6.4 km/h 98 % 0.0 mm
11:02 9.2 °C 8.9 °C 1028.0 hPa SW 1.6 km/h 6.4 km/h 98 % 0.0 mm
11:07 9.3 °C 9.0 °C 1028.0 hPa SSW 1.6 km/h 6.4 km/h 98 % 0.0 mm
11:12 9.3 °C 9.0 °C 1028.0 hPa SW 4.8 km/h 6.4 km/h 98 % 0.0 mm
11:17 9.3 °C 9.0 °C 1028.0 hPa SW 4.8 km/h 6.4 km/h 98 % 0.0 mm
11:22 9.4 °C 9.1 °C 1028.0 hPa SW 3.2 km/h 6.4 km/h 98 % 0.0 mm
11:27 9.4 °C 8.9 °C 1027.7 hPa SW 3.2 km/h 6.4 km/h 97 % 0.0 mm
11:32 9.5 °C 9.0 °C 1027.7 hPa WSW 1.6 km/h 6.4 km/h 97 % 0.0 mm
11:37 9.6 °C 9.1 °C 1027.7 hPa WSW 4.8 km/h 6.4 km/h 97 % 0.0 mm
11:42 9.6 °C 9.1 °C 1027.7 hPa SW 1.6 km/h 6.4 km/h 97 % 0.0 mm
11:47 9.6 °C 9.1 °C 1027.7 hPa WSW 1.6 km/h 8.0 km/h 97 % 0.0 mm
11:52 9.7 °C 9.1 °C 1027.7 hPa Calm   8.0 km/h 96 % 0.0 mm
11:57 9.8 °C 9.2 °C 1027.7 hPa Calm   8.0 km/h 96 % 0.0 mm
12:02 9.9 °C 9.3 °C 1027.7 hPa SW 3.2 km/h 6.4 km/h 96 % 0.0 mm
12:07 9.9 °C 9.3 °C 1027.7 hPa SW 1.6 km/h 8.0 km/h 96 % 0.0 mm
12:12 9.9 °C 9.3 °C 1027.3 hPa WSW 3.2 km/h 8.0 km/h 96 % 0.0 mm
12:17 10.0 °C 9.4 °C 1027.3 hPa SW 3.2 km/h 8.0 km/h 96 % 0.0 mm
12:22 10.1 °C 9.5 °C 1027.3 hPa WSW 1.6 km/h 8.0 km/h 96 % 0.0 mm
12:27 10.2 °C 9.6 °C 1027.0 hPa SW 1.6 km/h 6.4 km/h 96 % 0.0 mm
12:32 10.3 °C 9.7 °C 1027.0 hPa WSW 1.6 km/h 6.4 km/h 96 % 0.0 mm
12:42 10.6 °C 9.8 °C 1027.0 hPa SW 1.6 km/h 6.4 km/h 95 % 0.0 mm
12:47 10.8 °C 10.0 °C 1026.6 hPa WSW 3.2 km/h 6.4 km/h 95 % 0.0 mm
12:52 10.8 °C 9.9 °C 1026.6 hPa WSW 3.2 km/h 4.8 km/h 94 % 0.0 mm
12:57 10.8 °C 9.9 °C 1026.6 hPa West 1.6 km/h 4.8 km/h 94 % 0.0 mm
13:02 10.9 °C 9.8 °C 1026.3 hPa West 1.6 km/h 4.8 km/h 93 % 0.0 mm
13:07 10.9 °C 9.7 °C 1026.3 hPa Calm   4.8 km/h 92 % 0.0 mm
13:12 11.1 °C 10.0 °C 1026.3 hPa SW 1.6 km/h 4.8 km/h 93 % 0.0 mm
13:17 11.1 °C 10.0 °C 1026.3 hPa Calm   4.8 km/h 93 % 0.0 mm
13:22 10.9 °C 9.7 °C 1026.0 hPa Calm   8.0 km/h 92 % 0.0 mm
13:27 10.9 °C 9.8 °C 1026.0 hPa Calm   8.0 km/h 93 % 0.0 mm
13:32 11.1 °C 10.0 °C 1026.0 hPa Calm   8.0 km/h 93 % 0.0 mm
13:42 11.2 °C 9.9 °C 1025.6 hPa Calm   6.4 km/h 92 % 0.0 mm
13:47 11.3 °C 10.0 °C 1025.6 hPa Calm   6.4 km/h 92 % 0.0 mm
13:52 11.4 °C 9.8 °C 1025.3 hPa Calm   4.8 km/h 90 % 0.0 mm
14:02 11.5 °C 10.2 °C 1025.3 hPa Calm   4.8 km/h 92 % 0.0 mm
14:07 11.6 °C 10.2 °C 1024.9 hPa SW 1.6 km/h 6.4 km/h 91 % 0.0 mm
14:12 11.6 °C 10.0 °C 1024.9 hPa Calm   6.4 km/h 90 % 0.0 mm
14:17 11.7 °C 9.9 °C 1024.9 hPa WSW 1.6 km/h 6.4 km/h 89 % 0.0 mm
14:22 11.7 °C 9.9 °C 1024.9 hPa Calm   6.4 km/h 89 % 0.0 mm
14:27 11.8 °C 9.9 °C 1024.6 hPa NNE 1.6 km/h 4.8 km/h 88 % 0.0 mm
14:32 11.8 °C 9.9 °C 1024.6 hPa West 3.2 km/h 9.7 km/h 88 % 0.0 mm
14:37 11.9 °C 10.0 °C 1024.6 hPa West 1.6 km/h 9.7 km/h 88 % 0.0 mm
14:42 11.9 °C 10.1 °C 1024.3 hPa Calm   9.7 km/h 89 % 0.0 mm
14:47 11.9 °C 10.0 °C 1024.3 hPa WSW 1.6 km/h 4.8 km/h 88 % 0.0 mm
14:52 11.8 °C 9.7 °C 1024.3 hPa WSW 3.2 km/h 4.8 km/h 87 % 0.0 mm
14:57 11.8 °C 9.4 °C 1024.3 hPa SW 3.2 km/h 4.8 km/h 85 % 0.0 mm
15:02 12.1 °C 10.0 °C 1023.9 hPa Calm   9.7 km/h 87 % 0.0 mm
15:07 12.5 °C 9.9 °C 1023.9 hPa Calm   9.7 km/h 84 % 0.0 mm
15:12 12.6 °C 10.1 °C 1023.9 hPa WNW 3.2 km/h 6.4 km/h 85 % 0.0 mm
15:17 12.5 °C 10.2 °C 1023.9 hPa WSW 3.2 km/h 6.4 km/h 86 % 0.0 mm
15:22 12.8 °C 10.2 °C 1023.9 hPa SSW 3.2 km/h 4.8 km/h 84 % 0.0 mm
15:27 12.5 °C 9.7 °C 1023.9 hPa Calm   9.7 km/h 83 % 0.0 mm
15:32 12.1 °C 9.7 °C 1023.9 hPa Calm   9.7 km/h 85 % 0.0 mm
15:52 12.3 °C 9.7 °C 1023.6 hPa Calm   8.0 km/h 84 % 0.0 mm
15:57 12.5 °C 9.9 °C 1023.6 hPa SW 3.2 km/h 8.0 km/h 84 % 0.0 mm
16:02 12.6 °C 9.8 °C 1023.2 hPa Calm   9.7 km/h 83 % 0.0 mm
16:07 12.4 °C 9.8 °C 1023.2 hPa Calm   9.7 km/h 84 % 0.0 mm
16:12 11.9 °C 9.3 °C 1023.2 hPa Calm   9.7 km/h 84 % 0.0 mm
16:17 11.6 °C 9.3 °C 1023.2 hPa Calm   6.4 km/h 86 % 0.0 mm
16:22 11.2 °C 9.1 °C 1023.2 hPa Calm   4.8 km/h 87 % 0.0 mm
16:27 11.3 °C 9.4 °C 1023.2 hPa Calm   1.6 km/h 88 % 0.0 mm
16:32 11.6 °C 9.5 °C 1023.2 hPa West 3.2 km/h 4.8 km/h 87 % 0.0 mm
16:37 11.7 °C 9.6 °C 1023.2 hPa WNW 1.6 km/h 4.8 km/h 87 % 0.0 mm
16:42 11.4 °C 9.1 °C 1022.9 hPa Calm   4.8 km/h 86 % 0.0 mm
16:47 11.2 °C 8.9 °C 1022.9 hPa Calm   4.8 km/h 86 % 0.0 mm
16:52 11.1 °C 9.0 °C 1022.9 hPa Calm   4.8 km/h 87 % 0.0 mm
16:57 10.9 °C 8.8 °C 1022.6 hPa Calm   3.2 km/h 87 % 0.0 mm
17:02 10.8 °C 8.7 °C 1022.6 hPa Calm   3.2 km/h 87 % 0.0 mm
17:07 10.6 °C 8.5 °C 1022.6 hPa Calm   1.6 km/h 87 % 0.0 mm
17:12 10.5 °C 8.6 °C 1022.6 hPa Calm   3.2 km/h 88 % 0.0 mm
17:17 10.3 °C 8.4 °C 1022.6 hPa Calm   3.2 km/h 88 % 0.0 mm
17:22 10.1 °C 8.4 °C 1022.2 hPa Calm   3.2 km/h 89 % 0.0 mm
17:27 9.9 °C 8.2 °C 1022.2 hPa Calm   3.2 km/h 89 % 0.0 mm
17:32 9.7 °C 8.0 °C 1022.2 hPa Calm     89 % 0.0 mm
17:37 9.4 °C 7.8 °C 1022.2 hPa Calm     90 % 0.0 mm
17:42 9.2 °C 7.6 °C 1022.2 hPa Calm     90 % 0.0 mm
17:52 8.7 °C 7.3 °C 1022.2 hPa Calm     91 % 0.0 mm
18:02 8.2 °C 6.8 °C 1022.2 hPa Calm     91 % 0.0 mm
18:07 7.8 °C 6.4 °C 1022.2 hPa Calm     91 % 0.0 mm
18:12 7.6 °C 6.4 °C 1022.2 hPa Calm     92 % 0.0 mm
18:17 7.4 °C 6.2 °C 1022.2 hPa Calm     92 % 0.0 mm
18:22 7.1 °C 5.9 °C 1022.2 hPa Calm     92 % 0.0 mm
18:27 6.9 °C 5.8 °C 1021.9 hPa Calm     93 % 0.0 mm
18:32 6.8 °C 5.9 °C 1021.9 hPa Calm     94 % 0.0 mm
18:42 6.5 °C 5.6 °C 1021.9 hPa Calm     94 % 0.0 mm
18:47 6.3 °C 5.4 °C 1021.9 hPa Calm     94 % 0.0 mm
18:52 6.2 °C 5.3 °C 1021.9 hPa Calm     94 % 0.0 mm
18:57 6.2 °C 5.5 °C 1021.6 hPa Calm     95 % 0.0 mm
19:02 6.3 °C 5.7 °C 1021.6 hPa Calm     96 % 0.0 mm
19:07 6.4 °C 5.8 °C 1021.6 hPa Calm     96 % 0.0 mm
19:12 6.2 °C 5.5 °C 1021.6 hPa Calm     95 % 0.0 mm
19:17 6.2 °C 5.8 °C 1021.6 hPa Calm     97 % 0.0 mm
19:22 6.3 °C 5.9 °C 1021.6 hPa Calm     97 % 0.0 mm
19:27 6.3 °C 5.9 °C 1021.6 hPa Calm     97 % 0.0 mm
19:32 6.2 °C 5.6 °C 1021.2 hPa Calm     96 % 0.0 mm
19:42 5.7 °C 5.1 °C 1021.2 hPa Calm     96 % 0.0 mm
19:47 5.7 °C 5.1 °C 1021.2 hPa Calm     96 % 0.0 mm
19:52 5.6 °C 5.0 °C 1021.2 hPa Calm     96 % 0.0 mm
19:57 5.5 °C 4.9 °C 1021.2 hPa Calm     96 % 0.0 mm
20:07 5.3 °C 4.7 °C 1021.2 hPa Calm     96 % 0.0 mm
20:12 5.4 °C 5.0 °C 1020.9 hPa Calm     97 % 0.0 mm
20:17 5.3 °C 4.9 °C 1020.9 hPa Calm     97 % 0.0 mm
20:22 5.4 °C 5.0 °C 1020.9 hPa Calm     97 % 0.0 mm
20:32 5.4 °C 5.0 °C 1020.5 hPa Calm     97 % 0.0 mm
20:37 5.6 °C 5.2 °C 1020.5 hPa Calm     97 % 0.0 mm
20:42 5.6 °C 5.2 °C 1020.5 hPa Calm     97 % 0.0 mm
20:47 5.5 °C 5.1 °C 1020.5 hPa Calm     97 % 0.0 mm
20:52 5.4 °C 5.0 °C 1020.5 hPa Calm     97 % 0.0 mm
20:57 5.4 °C 5.0 °C 1020.5 hPa Calm     97 % 0.0 mm
21:02 5.4 °C 5.0 °C 1020.2 hPa Calm     97 % 0.0 mm
21:07 5.4 °C 5.0 °C 1020.2 hPa Calm     97 % 0.0 mm
21:12 5.4 °C 5.0 °C 1020.2 hPa Calm     97 % 0.0 mm
21:17 5.3 °C 4.9 °C 1020.2 hPa Calm     97 % 0.0 mm
21:22 5.3 °C 4.9 °C 1019.9 hPa Calm     97 % 0.0 mm
21:27 5.2 °C 4.8 °C 1019.9 hPa Calm     97 % 0.0 mm
21:32 5.2 °C 4.8 °C 1019.9 hPa Calm     97 % 0.0 mm
21:37 5.1 °C 4.7 °C 1019.9 hPa Calm     97 % 0.0 mm
21:42 4.9 °C 4.5 °C 1019.9 hPa Calm     97 % 0.0 mm
21:47 5.1 °C 4.8 °C 1019.9 hPa Calm     98 % 0.0 mm
21:57 4.9 °C 4.5 °C 1019.9 hPa Calm     97 % 0.0 mm
22:02 5.0 °C 4.7 °C 1019.9 hPa Calm     98 % 0.0 mm
22:12 4.7 °C 4.3 °C 1019.5 hPa Calm     97 % 0.0 mm
22:17 4.5 °C 4.1 °C 1019.5 hPa Calm     97 % 0.0 mm
22:22 4.4 °C 4.0 °C 1019.5 hPa Calm     97 % 0.0 mm
22:27 4.3 °C 3.9 °C 1019.5 hPa Calm     97 % 0.0 mm
22:32 4.2 °C 3.8 °C 1019.5 hPa Calm     97 % 0.0 mm
22:37 4.2 °C 3.8 °C 1019.5 hPa Calm     97 % 0.0 mm
22:42 4.2 °C 3.9 °C 1019.2 hPa Calm     98 % 0.0 mm
22:47 4.1 °C 3.8 °C 1019.2 hPa Calm     98 % 0.0 mm
22:52 4.2 °C 3.9 °C 1019.2 hPa Calm     98 % 0.0 mm
22:57 4.2 °C 3.9 °C 1019.2 hPa Calm     98 % 0.0 mm
23:02 4.1 °C 3.8 °C 1019.2 hPa Calm     98 % 0.0 mm
23:12 3.9 °C 3.6 °C 1019.2 hPa Calm     98 % 0.0 mm
23:17 4.1 °C 3.8 °C 1019.2 hPa Calm     98 % 0.0 mm
23:22 4.2 °C 3.9 °C 1018.8 hPa Calm     98 % 0.0 mm
23:27 4.2 °C 3.9 °C 1018.8 hPa Calm     98 % 0.0 mm
23:32 4.2 °C 3.9 °C 1018.8 hPa Calm     98 % 0.0 mm
23:37 4.1 °C 3.8 °C 1018.8 hPa Calm     98 % 0.0 mm
23:42 4.2 °C 3.9 °C 1018.8 hPa Calm     98 % 0.0 mm
23:52 4.1 °C 3.8 °C 1018.8 hPa Calm     98 % 0.0 mm
23:57 3.9 °C 3.6 °C 1018.8 hPa Calm     98 % 0.0 mm
Meteo18
Compliments of Weather Underground - 4 mb

Script developed by  Jim McMurry - jmcmurry@mwt.net Adapted for the template by  Wim van der Kuil - Leuven-Template.eu

You find our weather info also at:

European Weather Network

Weather Underground

Equipment we use:

Weather-station
Davis Vue

Weather-program
Meteohub

Weather-server
Raspberry PI 2 B+

Provider
1 and 1

Davis Vue

Meteohub

Raspberry PI 2 B+

1 and 1